Nearby METAR Reports

 

KSJC - San Jose, California, USA
Distance from station: NE 9mi, 14km
Updated: Mon, 18-Oct-2021 3:53pm PDT
Partly cloudy
Partly cloudy
 Wind from N
Wind: N 8 mph , 13 km/h
Temperature: 64°F , 18°C
Dew Point: 45°F , 7°C
Humidity: 49%
Barometer: 30.02 inHg , 1016.6 hPa
Clouds: Partly cloudy
Visibility: 10 miles , 16 km
Cloud details: Few Clouds 3000 ft
Partly cloudy 3800 ft
Partly cloudy 5000 ft
2021/10/18 22:53 KSJC 182253Z 35007KT 10SM FEW030 SCT038 SCT050 18/07 A3002 RMK AO2 SLP163 TCU DSNT NE
KRHV - San Jose/Reid, California, USA
Distance from station: ENE 12mi, 19km
Updated: Mon, 18-Oct-2021 3:50pm PDT
Partly cloudy
Partly cloudy
 Wind from N
Wind: N 7 mph , 11 km/h
Temperature: 63°F , 17°C
Dew Point: 43°F , 6°C
Humidity: 49%
Barometer: 30.02 inHg , 1016.6 hPa
Clouds: Partly cloudy
Visibility: 10 miles , 16 km
Cloud details: Partly cloudy 4000 ft
2021/10/18 22:50 KRHV 182250Z 35006KT 10SM SCT040 17/06 A3002
 
KPAO - Palo Alto, California, USA
Distance from station: NNW 14mi, 23km
Updated: Mon, 18-Oct-2021 3:47pm PDT
Partly cloudy
Partly cloudy
 Wind from NNW
Wind: NNW 12 mph , 19 km/h
Temperature: 61°F , 16°C
Dew Point: 46°F , 8°C
Humidity: 59%
Barometer: 30.02 inHg , 1016.6 hPa
Clouds: Partly cloudy
Visibility: 10 miles , 16 km
Cloud details: Partly cloudy 4000 ft
2021/10/18 22:47 KPAO 182247Z 34010KT 10SM SCT040 16/08 A3002
KOAK - Oakland, California, USA
Distance from station: NNW 31mi, 50km
Updated: Mon, 18-Oct-2021 3:53pm PDT
Partly cloudy
Partly cloudy
 Wind from W
Wind: W 13 mph , 20 km/h
Temperature: 63°F , 17°C
Dew Point: 48°F , 9°C
Humidity: 59%
Barometer: 30.03 inHg , 1016.9 hPa
Clouds: Partly cloudy
Visibility: 10 miles , 16 km
Cloud details: Partly cloudy 3000 ft
2021/10/18 22:53 KOAK 182253Z 26011KT 10SM SCT030 17/09 A3003 RMK AO2 SLP169 T01670089
 
KSQL - San Carlos Airpo, California, USA
Distance from station: NW 21mi, 34km
Updated: Mon, 18-Oct-2021 4:47pm PDT
Partly cloudy
Partly cloudy
 Wind from SW
Wind: SW 10 mph , 17 km/h
Temperature: 61°F , 16°C
Dew Point: 46°F , 8°C
Humidity: 59%
Barometer: 30.03 inHg , 1016.9 hPa
Clouds: Partly cloudy
Visibility: 10 miles , 16 km
Cloud details: Partly cloudy 3700 ft
2021/10/18 23:47 KSQL 182347Z 22009KT 10SM SCT037 16/08 A3003
KSFO - San Francisco, California, USA
Distance from station: NW 30mi, 49km
Updated: Mon, 18-Oct-2021 3:56pm PDT
Partly cloudy
Partly cloudy
 Wind from WNW
Wind: WNW 10 mph , 17 km/h
Temperature: 61°F , 16°C
Dew Point: 46°F , 8°C
Humidity: 59%
Barometer: 30.03 inHg , 1016.9 hPa
Clouds: Partly cloudy
Visibility: 10 miles , 16 km
Cloud details: Few Clouds 2700 ft
Partly cloudy 3000 ft
2021/10/18 22:56 KSFO 182256Z 30009KT 10SM FEW027 SCT030 16/08 A3003 RMK AO2 SLP168 T01560078
 
KE16 - San Martin, California, USA
Distance from station: ESE 27mi, 43km
Updated: Mon, 18-Oct-2021 4:35pm PDT
Clear
Clear
 Wind from W
Wind: W 3 mph , 6 km/h
Temperature: 63°F , 17°C
Dew Point: 36°F , 2°C
Humidity: 37%
Barometer: 30.02 inHg , 1016.6 hPa
Clouds: Clear
Visibility: 10 miles , 16 km
2021/10/18 23:35 KE16 182335Z AUTO 28003KT 10SM CLR 17/02 A3002 RMK AO2 PWINO PNO
KWVI - Watsonville, California, USA
Distance from station: SSE 27mi, 44km
Updated: Mon, 18-Oct-2021 3:53pm PDT
Partly cloudy
Partly cloudy
 Wind from WSW
Wind: WSW 10 mph , 17 km/h, Gust: 22 mph , 35 km/h
Temperature: 61°F , 16°C
Dew Point: 46°F , 8°C
Humidity: 59%
Barometer: 30.02 inHg , 1016.6 hPa
Clouds: Partly cloudy
Visibility: 10 miles , 16 km
Cloud details: Partly cloudy 6000 ft
2021/10/18 22:53 KWVI 182253Z AUTO 25009G19KT 10SM SCT060 16/08 A3002 RMK AO2 SLP166 T01610083
 
KHAF - Half Moon Bay, California, USA
Distance from station: WNW 31mi, 50km
Updated: Mon, 18-Oct-2021 4:35pm PDT
Partly cloudy
Partly cloudy
 Wind from NW
Wind: NW 7 mph , 11 km/h
Temperature: 57°F , 14°C
Dew Point: 50°F , 10°C
Humidity: 77%
Barometer: 30.04 inHg , 1017.3 hPa
Clouds: Partly cloudy
Visibility: 9 miles , 14 km
Cloud details: Partly cloudy 1600 ft
2021/10/18 23:35 KHAF 182335Z AUTO 31006KT 9SM SCT016 14/10 A3004 RMK AO2
KHWD - Hayward, California, USA
Distance from station: N 28mi, 44km
Updated: Mon, 18-Oct-2021 3:54pm PDT
Clear
Clear
 Wind from W
Wind: W 12 mph , 19 km/h
Temperature: 61°F , 16°C
Dew Point: 46°F , 8°C
Humidity: 59%
Barometer: 30.02 inHg , 1016.6 hPa
Clouds: Clear
Visibility: 10 miles , 16 km
2021/10/18 22:54 KHWD 182254Z 28010KT 10SM CLR 16/08 A3002 RMK AO2 SLP176 T01560078
 
KLVK - Livermore, California, USA
Distance from station: NNE 31mi, 51km
Updated: Mon, 18-Oct-2021 3:53pm PDT
Partly cloudy
Partly cloudy
 Wind from calm
Wind: Calm
Temperature: 63°F , 17°C
Dew Point: 43°F , 6°C
Humidity: 49%
Barometer: 30.00 inHg , 1015.9 hPa
Clouds: Partly cloudy
Visibility: 10 miles , 16 km
Cloud details: Partly cloudy 4200 ft
Partly cloudy 5000 ft
2021/10/18 22:53 KLVK 182253Z 00000KT 10SM SCT042 SCT050 17/06 A3000 RMK AO2 SLP157 T01670056